Observations for CAGLIARI ELMAS, Italy (LIEE)

LIEE 240920Z 19008KT CAVOK 29/15 Q1016  
LIEE 240850Z 19008KT CAVOK 29/16 Q1016  
LIEE 240820Z 20010KT CAVOK 28/16 Q1016  
LIEE 240750Z 20009KT CAVOK 27/17 Q1016  
LIEE 240720Z 19007KT CAVOK 26/18 Q1016  
LIEE 240650Z 20003KT 170V240 CAVOK 24/17 Q1016  
LIEE 240620Z 22003KT 190V250 CAVOK 23/16 Q1015  
LIEE 240550Z VRB02KT CAVOK 22/16 Q1015  
LIEE 240520Z VRB02KT CAVOK 21/16 Q1015  
LIEE 240450Z 35004KT CAVOK 19/16 Q1015  
LIEE 240420Z 31006KT CAVOK 20/16 Q1015  
LIEE 240350Z 30007KT CAVOK 20/16 Q1015  
LIEE 240320Z 31006KT CAVOK 19/17 Q1015  
LIEE 240250Z 33005KT CAVOK 20/16 Q1015  
LIEE 240220Z 33006KT CAVOK 20/17 Q1015  
LIEE 240150Z 04002KT CAVOK 20/17 Q1015  
LIEE 240120Z 11002KT CAVOK 21/18 Q1015  
LIEE 240050Z 05002KT CAVOK 22/19 Q1015  
LIEE 240020Z VRB02KT CAVOK 23/19 Q1015  
LIEE 232350Z 17003KT CAVOK 23/19 Q1015  
LIEE 232320Z 13004KT CAVOK 23/18 Q1016  
LIEE 232250Z 17004KT CAVOK 24/17 Q1016  
LIEE 232220Z 17004KT CAVOK 24/18 Q1015  
LIEE 232150Z 17003KT CAVOK 24/18 Q1015  
LIEE 232120Z 19005KT CAVOK 25/18 Q1015  
LIEE 232050Z 19007KT CAVOK 25/18 Q1015  
LIEE 232020Z 19008KT CAVOK 25/19 Q1015  
LIEE 231950Z 19009KT CAVOK 25/19 Q1014  
LIEE 231920Z 19012KT CAVOK 25/18 Q1014  
LIEE 231850Z 19011KT CAVOK 25/18 Q1014  
LIEE 231820Z 19012KT CAVOK 25/18 Q1014  
LIEE 231750Z 19011KT CAVOK 25/19 Q1014  
LIEE 231720Z 18010KT CAVOK 25/19 Q1014  
LIEE 231650Z 18010KT CAVOK 26/20 Q1014  
LIEE 231620Z 18009KT CAVOK 26/20 Q1014  
LIEE 231550Z 18009KT CAVOK 26/21 Q1014  
LIEE 231520Z 17009KT CAVOK 27/21 Q1014  
LIEE 231450Z 18009KT CAVOK 27/21 Q1014  
LIEE 231420Z 17009KT CAVOK 27/21 Q1014  
LIEE 231350Z 17008KT CAVOK 28/22 Q1014  
LIEE 231320Z 18010KT CAVOK 28/21 Q1014  
LIEE 231250Z 18007KT CAVOK 29/20 Q1014  
LIEE 231220Z 18006KT CAVOK 29/19 Q1014  
LIEE 231150Z 18006KT CAVOK 29/19 Q1014  
LIEE 231120Z 19005KT 150V210 CAVOK 28/20 Q1014  
LIEE 231050Z 20005KT CAVOK 28/20 Q1014  
LIEE 231020Z 19006KT CAVOK 28/20 Q1014  
LIEE 230950Z 20006KT CAVOK 28/20 Q1014  
LIEE 230920Z 20003KT 090V260 CAVOK 28/17 Q1014  
LIEE 230850Z 19003KT 150V230 CAVOK 27/17 Q1014